KLM1295 LBBG-EHAM
Flight info
| Callsign | KLM1295 |
|---|---|
| Flight time | 2h 43m |
| Altitude | 34000 |
| Route | GONGO L622 KOMAN DCT OBUGA DCT ENIMA DCT BUDOP DCT PATAK DCT ODNEM DCT ELMEK DCT VEXIL DCT KATCE DCT NORKU |
| Aircraft | B739/M-SDE2E3FGHIRWXY/LB1 |
Departure
| Time | 2026-05-05 15:39 |
|---|---|
| Airport | Burgas Airport (LBBG) |
Arrival
| Time | 2026-05-05 18:23 |
|---|---|
| Airport | Amsterdam Airport Schiphol (EHAM) |
| Time | Latitude | Longitude | Altitude | Speed | Heading |
|---|---|---|---|---|---|
| 2026-05-05 15:16 | 42.56616 | 27.51574 | 173 ft | 0 kts | 169° |
| 2026-05-05 15:32 | 42.56619 | 27.51573 | 173 ft | 3 kts | 178° |
| 2026-05-05 15:32 | 42.56623 | 27.51569 | 173 ft | 2 kts | 152° |
| 2026-05-05 15:32 | 42.56646 | 27.51559 | 173 ft | 4 kts | 185° |
| 2026-05-05 15:33 | 42.56669 | 27.51571 | 173 ft | 4 kts | 222° |
| 2026-05-05 15:33 | 42.56678 | 27.51585 | 173 ft | 1 kts | 229° |
| 2026-05-05 15:33 | 42.56679 | 27.51586 | 173 ft | 0 kts | 229° |
| 2026-05-05 15:35 | 42.56678 | 27.51584 | 173 ft | 1 kts | 229° |
| 2026-05-05 15:35 | 42.56659 | 27.51555 | 173 ft | 8 kts | 229° |
| 2026-05-05 15:35 | 42.56607 | 27.51476 | 172 ft | 14 kts | 228° |
| 2026-05-05 15:36 | 42.56527 | 27.51352 | 172 ft | 20 kts | 229° |
| 2026-05-05 15:36 | 42.56426 | 27.51197 | 172 ft | 23 kts | 228° |
| 2026-05-05 15:36 | 42.56320 | 27.51038 | 172 ft | 22 kts | 227° |
| 2026-05-05 15:36 | 42.56219 | 27.50886 | 172 ft | 22 kts | 227° |
| 2026-05-05 15:37 | 42.56120 | 27.50737 | 172 ft | 21 kts | 229° |
| 2026-05-05 15:37 | 42.56024 | 27.50591 | 172 ft | 20 kts | 228° |
| 2026-05-05 15:37 | 42.55931 | 27.50451 | 172 ft | 20 kts | 228° |
| 2026-05-05 15:37 | 42.55922 | 27.50302 | 172 ft | 16 kts | 310° |
| 2026-05-05 15:38 | 42.55997 | 27.50218 | 171 ft | 9 kts | 338° |
| 2026-05-05 15:38 | 42.56051 | 27.50253 | 171 ft | 9 kts | 45° |
| 2026-05-05 15:38 | 42.56121 | 27.50347 | 172 ft | 30 kts | 45° |
| 2026-05-05 15:38 | 42.56440 | 27.50770 | 174 ft | 98 kts | 44° |
| 2026-05-05 15:39 | 42.57076 | 27.51617 | 175 ft | 153 kts | 46° |
| 2026-05-05 15:39 | 42.57922 | 27.52697 | 405 ft | 179 kts | 45° |
| 2026-05-05 15:39 | 42.58907 | 27.53808 | 1031 ft | 182 kts | 32° |
| 2026-05-05 15:39 | 42.60010 | 27.54597 | 1871 ft | 180 kts | 31° |
| 2026-05-05 15:40 | 42.61165 | 27.55442 | 2257 ft | 202 kts | 25° |
| 2026-05-05 15:40 | 42.62629 | 27.55698 | 2455 ft | 227 kts | 348° |
| 2026-05-05 15:40 | 42.64097 | 27.54710 | 2815 ft | 247 kts | 325° |
| 2026-05-05 15:40 | 42.65472 | 27.53249 | 3375 ft | 257 kts | 321° |
| 2026-05-05 15:41 | 42.66834 | 27.51690 | 4353 ft | 253 kts | 320° |
| 2026-05-05 15:41 | 42.68173 | 27.50146 | 5246 ft | 253 kts | 321° |
| 2026-05-05 15:41 | 42.69522 | 27.48599 | 6130 ft | 254 kts | 322° |
| 2026-05-05 15:41 | 42.70892 | 27.47041 | 6919 ft | 257 kts | 322° |
| 2026-05-05 15:42 | 42.72261 | 27.45493 | 7651 ft | 261 kts | 323° |
| 2026-05-05 15:42 | 42.73662 | 27.43916 | 8403 ft | 264 kts | 323° |
| 2026-05-05 15:42 | 42.75097 | 27.42306 | 9173 ft | 267 kts | 324° |
| 2026-05-05 15:42 | 42.76526 | 27.40705 | 9937 ft | 270 kts | 324° |
| 2026-05-05 15:43 | 42.78003 | 27.39053 | 10405 ft | 284 kts | 324° |
| 2026-05-05 15:43 | 42.79603 | 27.37271 | 10588 ft | 306 kts | 324° |
| 2026-05-05 15:43 | 42.81269 | 27.35411 | 11026 ft | 316 kts | 324° |
| 2026-05-05 15:43 | 42.82983 | 27.33489 | 11705 ft | 319 kts | 324° |
| 2026-05-05 15:44 | 42.84696 | 27.31568 | 12411 ft | 322 kts | 324° |
| 2026-05-05 15:44 | 42.86425 | 27.29629 | 13090 ft | 325 kts | 324° |
| 2026-05-05 15:44 | 42.88191 | 27.27648 | 13747 ft | 329 kts | 324° |
| 2026-05-05 15:44 | 42.89980 | 27.25640 | 14327 ft | 333 kts | 324° |
| 2026-05-05 15:45 | 42.91759 | 27.23642 | 14913 ft | 335 kts | 324° |
| 2026-05-05 15:45 | 42.92957 | 27.22298 | 15289 ft | 336 kts | 324° |
| 2026-05-05 15:45 | 42.95386 | 27.19567 | 16060 ft | 342 kts | 324° |
| 2026-05-05 15:45 | 42.96612 | 27.18188 | 16471 ft | 344 kts | 324° |
| 2026-05-05 15:46 | 42.98478 | 27.16088 | 17060 ft | 347 kts | 324° |
| 2026-05-05 15:46 | 43.00333 | 27.13997 | 17668 ft | 350 kts | 324° |
| 2026-05-05 15:46 | 43.02209 | 27.11882 | 18240 ft | 353 kts | 324° |
| 2026-05-05 15:46 | 43.04124 | 27.09721 | 18740 ft | 356 kts | 324° |
| 2026-05-05 15:47 | 43.06043 | 27.07553 | 19254 ft | 359 kts | 324° |
| 2026-05-05 15:47 | 43.07980 | 27.05364 | 19771 ft | 363 kts | 323° |
| 2026-05-05 15:47 | 43.09940 | 27.03160 | 20293 ft | 365 kts | 325° |
| 2026-05-05 15:47 | 43.11984 | 27.01145 | 20793 ft | 366 kts | 329° |
| 2026-05-05 15:48 | 43.14132 | 26.99227 | 21298 ft | 369 kts | 330° |
| 2026-05-05 15:48 | 43.16277 | 26.97317 | 21803 ft | 372 kts | 329° |
| 2026-05-05 15:48 | 43.18459 | 26.95334 | 22306 ft | 375 kts | 329° |
| 2026-05-05 15:48 | 43.20647 | 26.93324 | 22805 ft | 378 kts | 329° |
| 2026-05-05 15:49 | 43.22834 | 26.91329 | 23301 ft | 381 kts | 329° |
| 2026-05-05 15:49 | 43.25065 | 26.89302 | 23756 ft | 384 kts | 329° |
| 2026-05-05 15:49 | 43.27281 | 26.87290 | 24147 ft | 387 kts | 329° |
| 2026-05-05 15:49 | 43.29534 | 26.85241 | 24559 ft | 389 kts | 329° |
| 2026-05-05 15:50 | 43.31815 | 26.83165 | 24970 ft | 392 kts | 328° |
| 2026-05-05 15:50 | 43.34070 | 26.81109 | 25365 ft | 395 kts | 328° |
| 2026-05-05 15:50 | 43.36381 | 26.78999 | 25762 ft | 397 kts | 328° |
| 2026-05-05 15:50 | 43.38666 | 26.76911 | 26154 ft | 399 kts | 328° |
| 2026-05-05 15:51 | 43.41002 | 26.74774 | 26529 ft | 402 kts | 328° |
| 2026-05-05 15:51 | 43.43329 | 26.72643 | 26911 ft | 404 kts | 328° |
| 2026-05-05 15:51 | 43.45663 | 26.70503 | 27288 ft | 407 kts | 328° |
| 2026-05-05 15:51 | 43.48032 | 26.68329 | 27663 ft | 409 kts | 328° |
| 2026-05-05 15:52 | 43.50415 | 26.66141 | 28038 ft | 411 kts | 328° |
| 2026-05-05 15:52 | 43.52781 | 26.63965 | 28402 ft | 413 kts | 328° |
| 2026-05-05 15:52 | 43.55167 | 26.61769 | 28763 ft | 415 kts | 328° |
| 2026-05-05 15:52 | 43.57595 | 26.59533 | 29125 ft | 417 kts | 328° |
| 2026-05-05 15:53 | 43.60022 | 26.57295 | 29469 ft | 420 kts | 328° |
| 2026-05-05 15:53 | 43.62432 | 26.55071 | 29808 ft | 422 kts | 328° |
| 2026-05-05 15:53 | 43.64894 | 26.52796 | 30127 ft | 424 kts | 328° |
| 2026-05-05 15:53 | 43.67328 | 26.50545 | 30413 ft | 426 kts | 328° |
| 2026-05-05 15:54 | 43.69807 | 26.48250 | 30684 ft | 427 kts | 328° |
| 2026-05-05 15:54 | 43.72257 | 26.45979 | 30950 ft | 429 kts | 328° |
| 2026-05-05 15:54 | 43.74760 | 26.43658 | 31207 ft | 431 kts | 328° |
| 2026-05-05 15:54 | 43.77230 | 26.41364 | 31456 ft | 432 kts | 328° |
| 2026-05-05 15:55 | 43.79738 | 26.39033 | 31707 ft | 434 kts | 328° |
| 2026-05-05 15:55 | 43.82268 | 26.36678 | 31950 ft | 435 kts | 328° |
| 2026-05-05 15:55 | 43.84757 | 26.34360 | 32191 ft | 437 kts | 328° |
| 2026-05-05 15:55 | 43.87293 | 26.31996 | 32427 ft | 438 kts | 328° |
| 2026-05-05 15:56 | 43.89836 | 26.29622 | 32653 ft | 439 kts | 328° |
| 2026-05-05 15:56 | 43.92343 | 26.27278 | 32874 ft | 441 kts | 328° |
| 2026-05-05 15:56 | 43.94900 | 26.24887 | 33115 ft | 441 kts | 328° |
| 2026-05-05 15:56 | 43.97447 | 26.22503 | 33428 ft | 440 kts | 328° |
| 2026-05-05 15:57 | 43.99978 | 26.20105 | 33773 ft | 438 kts | 327° |
| 2026-05-05 15:57 | 44.02452 | 26.17693 | 34061 ft | 437 kts | 326° |
| 2026-05-05 15:57 | 44.04941 | 26.15242 | 34278 ft | 437 kts | 326° |
| 2026-05-05 15:57 | 44.07411 | 26.12816 | 34445 ft | 438 kts | 327° |
| 2026-05-05 15:58 | 44.09907 | 26.10344 | 34622 ft | 439 kts | 324° |
| 2026-05-05 15:58 | 44.12192 | 26.07572 | 34820 ft | 441 kts | 315° |
| 2026-05-05 15:58 | 44.14270 | 26.04394 | 35047 ft | 441 kts | 314° |
| 2026-05-05 15:58 | 44.16290 | 26.01205 | 35221 ft | 441 kts | 313° |
| 2026-05-05 15:59 | 44.18334 | 25.97952 | 35393 ft | 442 kts | 313° |
| 2026-05-05 15:59 | 44.20344 | 25.94756 | 35562 ft | 442 kts | 313° |
| 2026-05-05 15:59 | 44.22387 | 25.91520 | 35768 ft | 441 kts | 313° |
| 2026-05-05 15:59 | 44.24404 | 25.88336 | 35926 ft | 441 kts | 313° |
| 2026-05-05 16:00 | 44.26457 | 25.85103 | 35998 ft | 443 kts | 313° |
| 2026-05-05 16:00 | 44.30569 | 25.78641 | 36014 ft | 447 kts | 313° |
| 2026-05-05 16:01 | 44.34708 | 25.72125 | 36014 ft | 449 kts | 313° |
| 2026-05-05 16:01 | 44.38853 | 25.65586 | 36004 ft | 451 kts | 313° |
| 2026-05-05 16:02 | 44.42991 | 25.59041 | 36003 ft | 450 kts | 313° |
| 2026-05-05 16:02 | 44.47151 | 25.52445 | 36000 ft | 449 kts | 313° |
| 2026-05-05 16:03 | 44.51267 | 25.45905 | 35996 ft | 447 kts | 313° |
| 2026-05-05 16:03 | 44.55355 | 25.39393 | 35995 ft | 446 kts | 313° |
| 2026-05-05 16:04 | 44.59442 | 25.32867 | 35990 ft | 445 kts | 313° |
| 2026-05-05 16:04 | 44.63516 | 25.26349 | 35993 ft | 444 kts | 313° |
| 2026-05-05 16:05 | 44.67586 | 25.19822 | 35990 ft | 444 kts | 313° |
| 2026-05-05 16:05 | 44.71650 | 25.13289 | 35990 ft | 443 kts | 313° |
| 2026-05-05 16:06 | 44.75702 | 25.06759 | 35987 ft | 443 kts | 313° |
| 2026-05-05 16:06 | 44.79762 | 25.00204 | 35989 ft | 444 kts | 313° |
| 2026-05-05 16:07 | 44.83807 | 24.93654 | 35981 ft | 444 kts | 313° |
| 2026-05-05 16:07 | 44.87887 | 24.87034 | 35978 ft | 444 kts | 313° |
| 2026-05-05 16:08 | 44.91926 | 24.80465 | 35979 ft | 445 kts | 312° |
| 2026-05-05 16:08 | 44.95991 | 24.73838 | 35981 ft | 446 kts | 312° |
| 2026-05-05 16:09 | 45.00029 | 24.67239 | 35976 ft | 446 kts | 312° |
| 2026-05-05 16:09 | 45.04099 | 24.60573 | 35977 ft | 446 kts | 312° |
| 2026-05-05 16:10 | 45.08142 | 24.53934 | 35975 ft | 446 kts | 312° |
| 2026-05-05 16:10 | 45.12195 | 24.47265 | 35983 ft | 447 kts | 312° |
| 2026-05-05 16:11 | 45.16232 | 24.40606 | 35986 ft | 447 kts | 312° |
| 2026-05-05 16:12 | 45.24318 | 24.27219 | 35974 ft | 447 kts | 312° |
| 2026-05-05 16:13 | 45.34424 | 24.10396 | 35989 ft | 447 kts | 311° |
| 2026-05-05 16:13 | 45.38441 | 24.03682 | 35993 ft | 448 kts | 311° |
| 2026-05-05 16:14 | 45.46517 | 23.90133 | 35993 ft | 447 kts | 311° |
| 2026-05-05 16:15 | 45.54537 | 23.76614 | 35997 ft | 447 kts | 311° |
| 2026-05-05 16:16 | 45.62534 | 23.63068 | 35994 ft | 447 kts | 311° |
| 2026-05-05 16:17 | 45.68534 | 23.52860 | 35984 ft | 447 kts | 311° |
| 2026-05-05 16:18 | 45.74526 | 23.42630 | 35967 ft | 447 kts | 311° |
| 2026-05-05 16:19 | 45.80511 | 23.32374 | 35964 ft | 447 kts | 311° |
| 2026-05-05 16:19 | 45.86502 | 23.22068 | 35959 ft | 447 kts | 311° |
| 2026-05-05 16:20 | 45.94445 | 23.08347 | 35961 ft | 447 kts | 311° |
| 2026-05-05 16:22 | 46.04329 | 22.91179 | 35966 ft | 447 kts | 310° |
| 2026-05-05 16:23 | 46.12266 | 22.77314 | 35965 ft | 448 kts | 310° |
| 2026-05-05 16:23 | 46.18184 | 22.66930 | 35969 ft | 448 kts | 310° |
| 2026-05-05 16:24 | 46.22137 | 22.59975 | 35969 ft | 448 kts | 310° |
| 2026-05-05 16:25 | 46.28059 | 22.49519 | 35966 ft | 449 kts | 310° |
| 2026-05-05 16:25 | 46.33984 | 22.39020 | 35962 ft | 449 kts | 310° |
| 2026-05-05 16:26 | 46.41852 | 22.25014 | 35961 ft | 449 kts | 310° |
| 2026-05-05 16:27 | 46.45785 | 22.17986 | 35960 ft | 449 kts | 310° |
| 2026-05-05 16:27 | 46.49704 | 22.10967 | 35955 ft | 449 kts | 310° |
| 2026-05-05 16:28 | 46.53629 | 22.03918 | 35947 ft | 449 kts | 310° |
| 2026-05-05 16:28 | 46.57556 | 21.96847 | 35947 ft | 449 kts | 309° |
| 2026-05-05 16:29 | 46.61466 | 21.89790 | 35945 ft | 449 kts | 309° |
| 2026-05-05 16:29 | 46.65374 | 21.82718 | 35939 ft | 448 kts | 309° |
| 2026-05-05 16:30 | 46.69267 | 21.75655 | 35936 ft | 448 kts | 309° |
| 2026-05-05 16:30 | 46.73167 | 21.68560 | 35935 ft | 448 kts | 309° |
| 2026-05-05 16:31 | 46.77055 | 21.61470 | 35935 ft | 448 kts | 309° |
| 2026-05-05 16:31 | 46.80935 | 21.54375 | 35935 ft | 448 kts | 309° |
| 2026-05-05 16:32 | 46.84812 | 21.47269 | 35932 ft | 448 kts | 309° |
| 2026-05-05 16:32 | 46.88684 | 21.40153 | 35931 ft | 448 kts | 309° |
| 2026-05-05 16:33 | 46.91925 | 21.34182 | 35927 ft | 448 kts | 309° |
| 2026-05-05 16:33 | 46.95787 | 21.27051 | 35930 ft | 448 kts | 309° |
| 2026-05-05 16:34 | 46.99648 | 21.19904 | 35926 ft | 448 kts | 309° |
| 2026-05-05 16:34 | 47.03509 | 21.12738 | 35926 ft | 448 kts | 309° |
| 2026-05-05 16:35 | 47.07365 | 21.05561 | 35925 ft | 448 kts | 309° |
| 2026-05-05 16:35 | 47.11214 | 20.98380 | 35920 ft | 448 kts | 309° |
| 2026-05-05 16:36 | 47.15066 | 20.91173 | 35919 ft | 448 kts | 309° |
| 2026-05-05 16:36 | 47.18902 | 20.83979 | 35918 ft | 448 kts | 309° |
| 2026-05-05 16:37 | 47.22739 | 20.76763 | 35917 ft | 448 kts | 308° |
| 2026-05-05 16:37 | 47.26579 | 20.69522 | 35914 ft | 448 kts | 308° |
| 2026-05-05 16:38 | 47.30406 | 20.62287 | 35912 ft | 448 kts | 308° |
| 2026-05-05 16:38 | 47.34256 | 20.54990 | 35911 ft | 449 kts | 308° |
| 2026-05-05 16:39 | 47.38079 | 20.47723 | 35912 ft | 449 kts | 308° |
| 2026-05-05 16:39 | 47.41877 | 20.40486 | 35913 ft | 449 kts | 308° |
| 2026-05-05 16:40 | 47.45690 | 20.33201 | 35911 ft | 449 kts | 308° |
| 2026-05-05 16:40 | 47.49494 | 20.25912 | 35911 ft | 449 kts | 308° |
| 2026-05-05 16:41 | 47.53309 | 20.18585 | 35915 ft | 448 kts | 308° |
| 2026-05-05 16:41 | 47.57107 | 20.11269 | 35913 ft | 448 kts | 308° |
| 2026-05-05 16:42 | 47.60900 | 20.03944 | 35915 ft | 448 kts | 308° |
| 2026-05-05 16:42 | 47.64701 | 19.96584 | 35917 ft | 448 kts | 307° |
| 2026-05-05 16:43 | 47.68486 | 19.89235 | 35918 ft | 448 kts | 307° |
| 2026-05-05 16:43 | 47.72255 | 19.81897 | 35919 ft | 448 kts | 307° |
| 2026-05-05 16:44 | 47.76031 | 19.74527 | 35917 ft | 448 kts | 307° |
| 2026-05-05 16:44 | 47.79792 | 19.67164 | 35919 ft | 448 kts | 307° |
| 2026-05-05 16:45 | 47.83576 | 19.59736 | 35916 ft | 448 kts | 307° |
| 2026-05-05 16:45 | 47.87335 | 19.52340 | 35916 ft | 448 kts | 307° |
| 2026-05-05 16:46 | 47.91089 | 19.44931 | 35915 ft | 448 kts | 307° |
| 2026-05-05 16:46 | 47.94815 | 19.37557 | 35909 ft | 448 kts | 307° |
| 2026-05-05 16:47 | 47.98561 | 19.30124 | 35909 ft | 447 kts | 307° |
| 2026-05-05 16:47 | 48.02285 | 19.22713 | 35904 ft | 447 kts | 307° |
| 2026-05-05 16:48 | 48.06012 | 19.15281 | 35901 ft | 447 kts | 307° |
| 2026-05-05 16:48 | 48.09547 | 19.07572 | 35903 ft | 447 kts | 302° |
| 2026-05-05 16:49 | 48.12764 | 18.99662 | 35899 ft | 447 kts | 301° |
| 2026-05-05 16:49 | 48.15972 | 18.91689 | 35887 ft | 447 kts | 301° |
| 2026-05-05 16:50 | 48.19215 | 18.83696 | 35892 ft | 447 kts | 301° |
| 2026-05-05 16:50 | 48.22454 | 18.75747 | 35883 ft | 447 kts | 301° |
| 2026-05-05 16:51 | 48.25692 | 18.67787 | 35879 ft | 447 kts | 301° |
| 2026-05-05 16:51 | 48.28923 | 18.59823 | 35870 ft | 447 kts | 301° |
| 2026-05-05 16:52 | 48.32145 | 18.51852 | 35873 ft | 446 kts | 301° |
| 2026-05-05 16:52 | 48.35356 | 18.43888 | 35867 ft | 446 kts | 301° |
| 2026-05-05 16:53 | 48.38566 | 18.35899 | 35864 ft | 445 kts | 301° |
| 2026-05-05 16:53 | 48.41742 | 18.27970 | 35856 ft | 445 kts | 301° |
| 2026-05-05 16:54 | 48.44939 | 18.19969 | 35854 ft | 445 kts | 301° |
| 2026-05-05 16:54 | 48.48124 | 18.11972 | 35842 ft | 445 kts | 301° |
| 2026-05-05 16:55 | 48.51305 | 18.03960 | 35839 ft | 445 kts | 300° |
| 2026-05-05 16:55 | 48.54464 | 17.95980 | 35826 ft | 444 kts | 300° |
| 2026-05-05 16:56 | 48.57621 | 17.87983 | 35829 ft | 444 kts | 300° |
| 2026-05-05 16:56 | 48.60778 | 17.79961 | 35828 ft | 444 kts | 300° |
| 2026-05-05 16:57 | 48.63923 | 17.71945 | 35831 ft | 444 kts | 300° |
| 2026-05-05 16:57 | 48.67055 | 17.63938 | 35827 ft | 443 kts | 300° |
| 2026-05-05 16:58 | 48.70189 | 17.55900 | 35822 ft | 443 kts | 300° |
| 2026-05-05 16:58 | 48.73322 | 17.47841 | 35806 ft | 442 kts | 300° |
| 2026-05-05 16:59 | 48.76425 | 17.39836 | 35798 ft | 442 kts | 300° |
| 2026-05-05 16:59 | 48.79534 | 17.31791 | 35788 ft | 441 kts | 300° |
| 2026-05-05 17:00 | 48.82612 | 17.23802 | 35783 ft | 440 kts | 300° |
| 2026-05-05 17:00 | 48.85690 | 17.15779 | 35776 ft | 440 kts | 299° |
| 2026-05-05 17:01 | 48.88619 | 17.07657 | 35779 ft | 439 kts | 297° |
| 2026-05-05 17:01 | 48.91483 | 16.99466 | 35775 ft | 438 kts | 297° |
| 2026-05-05 17:02 | 48.94348 | 16.91278 | 35771 ft | 438 kts | 297° |
| 2026-05-05 17:02 | 48.97207 | 16.83134 | 35765 ft | 438 kts | 297° |
| 2026-05-05 17:03 | 49.00073 | 16.74959 | 35773 ft | 437 kts | 297° |
| 2026-05-05 17:03 | 49.02931 | 16.66787 | 35781 ft | 437 kts | 297° |
| 2026-05-05 17:04 | 49.05785 | 16.58598 | 35776 ft | 437 kts | 297° |
| 2026-05-05 17:04 | 49.08626 | 16.50420 | 35771 ft | 437 kts | 297° |
| 2026-05-05 17:05 | 49.11463 | 16.42229 | 35765 ft | 437 kts | 297° |
| 2026-05-05 17:05 | 49.14300 | 16.34011 | 35770 ft | 437 kts | 297° |
| 2026-05-05 17:06 | 49.17127 | 16.25797 | 35774 ft | 437 kts | 296° |
| 2026-05-05 17:06 | 49.19955 | 16.17550 | 35776 ft | 437 kts | 296° |
| 2026-05-05 17:07 | 49.22761 | 16.09344 | 35773 ft | 437 kts | 296° |
| 2026-05-05 17:07 | 49.25586 | 16.01054 | 35776 ft | 437 kts | 296° |
| 2026-05-05 17:08 | 49.28391 | 15.92798 | 35759 ft | 438 kts | 296° |
| 2026-05-05 17:08 | 49.31192 | 15.84525 | 35752 ft | 438 kts | 296° |
| 2026-05-05 17:09 | 49.33972 | 15.76287 | 35741 ft | 438 kts | 296° |
| 2026-05-05 17:09 | 49.36763 | 15.67990 | 35732 ft | 438 kts | 296° |
| 2026-05-05 17:10 | 49.39553 | 15.59672 | 35737 ft | 438 kts | 296° |
| 2026-05-05 17:10 | 49.42333 | 15.51354 | 35733 ft | 438 kts | 295° |
| 2026-05-05 17:11 | 49.45100 | 15.43046 | 35737 ft | 437 kts | 295° |
| 2026-05-05 17:11 | 49.47869 | 15.34708 | 35741 ft | 438 kts | 295° |
| 2026-05-05 17:12 | 49.50625 | 15.26380 | 35747 ft | 438 kts | 295° |
| 2026-05-05 17:12 | 49.53383 | 15.18018 | 35748 ft | 438 kts | 295° |
| 2026-05-05 17:13 | 49.56131 | 15.09658 | 35749 ft | 438 kts | 295° |
| 2026-05-05 17:13 | 49.58882 | 15.01261 | 35751 ft | 439 kts | 295° |
| 2026-05-05 17:14 | 49.61622 | 14.92873 | 35750 ft | 439 kts | 295° |
| 2026-05-05 17:14 | 49.64365 | 14.84445 | 35750 ft | 439 kts | 295° |
| 2026-05-05 17:15 | 49.67096 | 14.76023 | 35755 ft | 439 kts | 295° |
| 2026-05-05 17:15 | 49.69818 | 14.67605 | 35746 ft | 440 kts | 295° |
| 2026-05-05 17:16 | 49.72543 | 14.59148 | 35758 ft | 440 kts | 294° |
| 2026-05-05 17:16 | 49.75273 | 14.50647 | 35757 ft | 440 kts | 294° |
| 2026-05-05 17:17 | 49.77982 | 14.42182 | 35759 ft | 440 kts | 294° |
| 2026-05-05 17:17 | 49.80687 | 14.33699 | 35761 ft | 440 kts | 294° |
| 2026-05-05 17:18 | 49.83379 | 14.25230 | 35759 ft | 440 kts | 294° |
| 2026-05-05 17:18 | 49.85980 | 14.17019 | 35765 ft | 440 kts | 294° |
| 2026-05-05 17:19 | 49.88675 | 14.08487 | 35765 ft | 441 kts | 294° |
| 2026-05-05 17:19 | 49.91427 | 13.99935 | 35761 ft | 441 kts | 296° |
| 2026-05-05 17:20 | 49.94397 | 13.91619 | 35760 ft | 442 kts | 297° |
| 2026-05-05 17:20 | 49.97411 | 13.83332 | 35763 ft | 442 kts | 297° |
| 2026-05-05 17:21 | 50.00402 | 13.75002 | 35828 ft | 444 kts | 295° |
| 2026-05-05 17:22 | 50.04909 | 13.62296 | 35757 ft | 448 kts | 295° |
| 2026-05-05 17:22 | 50.07907 | 13.53799 | 35748 ft | 450 kts | 295° |
| 2026-05-05 17:23 | 50.10932 | 13.45198 | 35750 ft | 450 kts | 295° |
| 2026-05-05 17:23 | 50.13926 | 13.36658 | 35757 ft | 451 kts | 295° |
| 2026-05-05 17:24 | 50.16931 | 13.28058 | 35763 ft | 452 kts | 295° |
| 2026-05-05 17:24 | 50.19924 | 13.19466 | 35769 ft | 452 kts | 295° |
| 2026-05-05 17:25 | 50.22923 | 13.10825 | 35776 ft | 452 kts | 295° |
| 2026-05-05 17:25 | 50.25909 | 13.02190 | 35774 ft | 452 kts | 294° |
| 2026-05-05 17:26 | 50.28398 | 12.94974 | 35776 ft | 452 kts | 294° |
| 2026-05-05 17:26 | 50.31371 | 12.86322 | 35775 ft | 452 kts | 294° |
| 2026-05-05 17:27 | 50.34339 | 12.77657 | 35773 ft | 452 kts | 294° |
| 2026-05-05 17:27 | 50.37305 | 12.68972 | 35765 ft | 453 kts | 294° |
| 2026-05-05 17:28 | 50.40341 | 12.60270 | 35762 ft | 454 kts | 296° |
| 2026-05-05 17:28 | 50.43631 | 12.51834 | 35752 ft | 455 kts | 298° |
| 2026-05-05 17:29 | 50.46985 | 12.43419 | 35762 ft | 455 kts | 297° |
| 2026-05-05 17:29 | 50.50311 | 12.34968 | 35755 ft | 456 kts | 297° |
| 2026-05-05 17:30 | 50.53627 | 12.26443 | 35752 ft | 456 kts | 297° |
| 2026-05-05 17:30 | 50.56931 | 12.17897 | 35758 ft | 457 kts | 297° |
| 2026-05-05 17:31 | 50.60227 | 12.09342 | 35756 ft | 457 kts | 297° |
| 2026-05-05 17:31 | 50.63507 | 12.00804 | 35758 ft | 458 kts | 297° |
| 2026-05-05 17:32 | 50.66794 | 11.92221 | 35766 ft | 458 kts | 296° |
| 2026-05-05 17:32 | 50.70097 | 11.83566 | 35775 ft | 458 kts | 296° |
| 2026-05-05 17:33 | 50.73374 | 11.74952 | 35776 ft | 459 kts | 296° |
| 2026-05-05 17:33 | 50.76645 | 11.66325 | 35747 ft | 457 kts | 297° |
| 2026-05-05 17:34 | 50.79887 | 11.57751 | 35776 ft | 454 kts | 297° |
| 2026-05-05 17:34 | 50.83120 | 11.49167 | 35795 ft | 452 kts | 296° |
| 2026-05-05 17:35 | 50.86308 | 11.40670 | 35799 ft | 452 kts | 296° |
| 2026-05-05 17:35 | 50.89523 | 11.32077 | 35804 ft | 451 kts | 296° |
| 2026-05-05 17:36 | 50.92716 | 11.23514 | 35805 ft | 451 kts | 296° |
| 2026-05-05 17:36 | 50.95877 | 11.15007 | 35805 ft | 451 kts | 296° |
| 2026-05-05 17:37 | 50.99056 | 11.06424 | 35805 ft | 451 kts | 296° |
| 2026-05-05 17:37 | 51.02243 | 10.97792 | 35807 ft | 452 kts | 296° |
| 2026-05-05 17:38 | 51.05406 | 10.89193 | 35805 ft | 452 kts | 296° |
| 2026-05-05 17:38 | 51.08572 | 10.80561 | 35811 ft | 453 kts | 296° |
| 2026-05-05 17:39 | 51.11736 | 10.71902 | 35811 ft | 454 kts | 296° |
| 2026-05-05 17:39 | 51.14904 | 10.63203 | 35813 ft | 454 kts | 296° |
| 2026-05-05 17:40 | 51.18059 | 10.54511 | 35812 ft | 454 kts | 295° |
| 2026-05-05 17:40 | 51.21225 | 10.45759 | 35813 ft | 454 kts | 295° |
| 2026-05-05 17:41 | 51.24371 | 10.37034 | 35817 ft | 455 kts | 295° |
| 2026-05-05 17:41 | 51.27331 | 10.28128 | 35814 ft | 453 kts | 292° |
| 2026-05-05 17:42 | 51.30049 | 10.19078 | 35818 ft | 453 kts | 291° |
| 2026-05-05 17:42 | 51.32775 | 10.09927 | 35815 ft | 454 kts | 291° |
| 2026-05-05 17:43 | 51.35502 | 10.00853 | 35806 ft | 454 kts | 291° |
| 2026-05-05 17:43 | 51.38247 | 9.91749 | 35809 ft | 454 kts | 291° |
| 2026-05-05 17:44 | 51.40984 | 9.82655 | 35805 ft | 455 kts | 291° |
| 2026-05-05 17:44 | 51.43722 | 9.73521 | 35810 ft | 455 kts | 291° |
| 2026-05-05 17:45 | 51.46460 | 9.64347 | 35809 ft | 455 kts | 291° |
| 2026-05-05 17:45 | 51.49185 | 9.55178 | 35813 ft | 458 kts | 291° |
| 2026-05-05 17:46 | 51.51916 | 9.45957 | 35811 ft | 460 kts | 291° |
| 2026-05-05 17:46 | 51.54675 | 9.36606 | 35810 ft | 461 kts | 291° |
| 2026-05-05 17:47 | 51.57396 | 9.27348 | 35814 ft | 462 kts | 291° |
| 2026-05-05 17:47 | 51.60149 | 9.17944 | 35808 ft | 462 kts | 291° |
| 2026-05-05 17:48 | 51.62861 | 9.08644 | 35806 ft | 462 kts | 290° |
| 2026-05-05 17:48 | 51.65572 | 8.99313 | 35827 ft | 462 kts | 290° |
| 2026-05-05 17:49 | 51.68298 | 8.89890 | 35828 ft | 462 kts | 290° |
| 2026-05-05 17:49 | 51.71003 | 8.80504 | 35825 ft | 461 kts | 290° |
| 2026-05-05 17:50 | 51.73689 | 8.71147 | 35831 ft | 461 kts | 290° |
| 2026-05-05 17:50 | 51.76366 | 8.61783 | 35840 ft | 460 kts | 290° |
| 2026-05-05 17:51 | 51.79039 | 8.52395 | 35830 ft | 460 kts | 290° |
| 2026-05-05 17:51 | 51.81698 | 8.43019 | 35830 ft | 460 kts | 290° |
| 2026-05-05 17:52 | 51.84367 | 8.33573 | 35833 ft | 460 kts | 290° |
| 2026-05-05 17:52 | 51.87017 | 8.24153 | 35840 ft | 460 kts | 290° |
| 2026-05-05 17:53 | 51.89659 | 8.14723 | 35839 ft | 461 kts | 290° |
| 2026-05-05 17:53 | 51.92288 | 8.05305 | 35845 ft | 461 kts | 290° |
| 2026-05-05 17:54 | 51.94924 | 7.95823 | 35850 ft | 461 kts | 289° |
| 2026-05-05 17:54 | 51.97547 | 7.86346 | 35853 ft | 461 kts | 289° |
| 2026-05-05 17:55 | 52.00143 | 7.76942 | 35834 ft | 448 kts | 289° |
| 2026-05-05 17:55 | 52.02645 | 7.67854 | 35848 ft | 434 kts | 289° |
| 2026-05-05 17:56 | 52.05112 | 7.58805 | 35170 ft | 447 kts | 289° |
| 2026-05-05 17:56 | 52.06356 | 7.54233 | 34539 ft | 445 kts | 288° |
| 2026-05-05 17:56 | 52.07614 | 7.49614 | 33807 ft | 443 kts | 288° |
| 2026-05-05 17:56 | 52.08849 | 7.45072 | 32996 ft | 441 kts | 288° |
| 2026-05-05 17:57 | 52.10088 | 7.40506 | 32206 ft | 439 kts | 289° |
| 2026-05-05 17:57 | 52.11312 | 7.35985 | 31441 ft | 437 kts | 289° |
| 2026-05-05 17:57 | 52.12537 | 7.31451 | 30835 ft | 432 kts | 289° |
| 2026-05-05 17:57 | 52.13732 | 7.27021 | 30304 ft | 427 kts | 290° |
| 2026-05-05 17:58 | 52.14930 | 7.22566 | 29742 ft | 427 kts | 290° |
| 2026-05-05 17:58 | 52.16105 | 7.18185 | 29143 ft | 426 kts | 290° |
| 2026-05-05 17:58 | 52.17283 | 7.13789 | 28591 ft | 418 kts | 290° |
| 2026-05-05 17:58 | 52.18440 | 7.09468 | 28057 ft | 410 kts | 290° |
| 2026-05-05 17:59 | 52.19575 | 7.05221 | 27535 ft | 404 kts | 290° |
| 2026-05-05 17:59 | 52.20659 | 7.01073 | 26908 ft | 401 kts | 288° |
| 2026-05-05 17:59 | 52.21648 | 6.96790 | 26093 ft | 402 kts | 286° |
| 2026-05-05 17:59 | 52.22568 | 6.92515 | 25406 ft | 400 kts | 285° |
| 2026-05-05 18:00 | 52.23473 | 6.88222 | 24827 ft | 396 kts | 285° |
| 2026-05-05 18:00 | 52.24358 | 6.84031 | 24333 ft | 390 kts | 285° |
| 2026-05-05 18:00 | 52.25245 | 6.79859 | 23835 ft | 386 kts | 286° |
| 2026-05-05 18:00 | 52.26133 | 6.75709 | 23332 ft | 384 kts | 286° |
| 2026-05-05 18:01 | 52.27011 | 6.71619 | 22774 ft | 386 kts | 286° |
| 2026-05-05 18:01 | 52.27904 | 6.67460 | 22254 ft | 386 kts | 286° |
| 2026-05-05 18:01 | 52.28793 | 6.63335 | 21758 ft | 379 kts | 287° |
| 2026-05-05 18:01 | 52.29652 | 6.59344 | 21243 ft | 374 kts | 287° |
| 2026-05-05 18:02 | 52.30511 | 6.55346 | 20565 ft | 373 kts | 287° |
| 2026-05-05 18:02 | 52.31378 | 6.51297 | 19803 ft | 376 kts | 288° |
| 2026-05-05 18:02 | 52.32232 | 6.47300 | 19207 ft | 374 kts | 288° |
| 2026-05-05 18:02 | 52.33087 | 6.43296 | 18659 ft | 370 kts | 288° |
| 2026-05-05 18:03 | 52.33924 | 6.39368 | 18101 ft | 367 kts | 288° |
| 2026-05-05 18:03 | 52.34763 | 6.35419 | 17460 ft | 364 kts | 288° |
| 2026-05-05 18:03 | 52.35593 | 6.31508 | 16882 ft | 361 kts | 288° |
| 2026-05-05 18:03 | 52.36402 | 6.27693 | 16329 ft | 357 kts | 288° |
| 2026-05-05 18:04 | 52.37217 | 6.23837 | 15752 ft | 354 kts | 289° |
| 2026-05-05 18:04 | 52.38010 | 6.20082 | 15209 ft | 351 kts | 289° |
| 2026-05-05 18:04 | 52.38805 | 6.16305 | 14669 ft | 348 kts | 289° |
| 2026-05-05 18:04 | 52.39593 | 6.12558 | 14139 ft | 345 kts | 289° |
| 2026-05-05 18:05 | 52.40365 | 6.08878 | 13615 ft | 342 kts | 289° |
| 2026-05-05 18:05 | 52.41138 | 6.05188 | 13055 ft | 339 kts | 289° |
| 2026-05-05 18:05 | 52.41897 | 6.01560 | 12505 ft | 336 kts | 289° |
| 2026-05-05 18:05 | 52.42655 | 5.97931 | 11963 ft | 333 kts | 289° |
| 2026-05-05 18:06 | 52.43402 | 5.94345 | 11433 ft | 330 kts | 289° |
| 2026-05-05 18:06 | 52.43642 | 5.93194 | 11274 ft | 329 kts | 289° |
| 2026-05-05 18:06 | 52.44866 | 5.87301 | 10400 ft | 325 kts | 288° |
| 2026-05-05 18:06 | 52.45586 | 5.83826 | 9907 ft | 322 kts | 288° |
| 2026-05-05 18:07 | 52.46307 | 5.80342 | 9365 ft | 320 kts | 288° |
| 2026-05-05 18:07 | 52.47020 | 5.76888 | 8842 ft | 317 kts | 288° |
| 2026-05-05 18:07 | 52.47718 | 5.73502 | 8336 ft | 314 kts | 288° |
| 2026-05-05 18:07 | 52.48415 | 5.70116 | 7825 ft | 311 kts | 289° |
| 2026-05-05 18:08 | 52.49106 | 5.66758 | 7313 ft | 308 kts | 289° |
| 2026-05-05 18:08 | 52.49777 | 5.63483 | 6988 ft | 305 kts | 289° |
| 2026-05-05 18:08 | 52.50449 | 5.60157 | 6801 ft | 301 kts | 285° |
| 2026-05-05 18:08 | 52.50606 | 5.56840 | 6712 ft | 291 kts | 262° |
| 2026-05-05 18:09 | 52.49996 | 5.53738 | 6626 ft | 279 kts | 243° |
| 2026-05-05 18:09 | 52.49062 | 5.51086 | 6491 ft | 265 kts | 239° |
| 2026-05-05 18:09 | 52.48096 | 5.48501 | 6237 ft | 262 kts | 239° |
| 2026-05-05 18:09 | 52.47148 | 5.45980 | 5904 ft | 262 kts | 239° |
| 2026-05-05 18:10 | 52.46186 | 5.43413 | 5559 ft | 262 kts | 239° |
| 2026-05-05 18:10 | 52.45242 | 5.40883 | 5215 ft | 263 kts | 240° |
| 2026-05-05 18:10 | 52.44282 | 5.38304 | 4896 ft | 263 kts | 240° |
| 2026-05-05 18:10 | 52.43336 | 5.35768 | 4570 ft | 263 kts | 239° |
| 2026-05-05 18:11 | 52.42496 | 5.33655 | 4446 ft | 266 kts | 238° |
| 2026-05-05 18:11 | 52.41459 | 5.31102 | 4409 ft | 268 kts | 237° |
| 2026-05-05 18:11 | 52.40436 | 5.28593 | 4401 ft | 265 kts | 237° |
| 2026-05-05 18:11 | 52.39406 | 5.26071 | 4406 ft | 264 kts | 237° |
| 2026-05-05 18:12 | 52.38726 | 5.24409 | 4404 ft | 265 kts | 238° |
| 2026-05-05 18:12 | 52.37701 | 5.21910 | 4407 ft | 265 kts | 237° |
| 2026-05-05 18:12 | 52.36329 | 5.18576 | 4402 ft | 265 kts | 237° |
| 2026-05-05 18:12 | 52.35642 | 5.16907 | 4409 ft | 265 kts | 237° |
| 2026-05-05 18:13 | 52.34605 | 5.14387 | 4405 ft | 265 kts | 237° |
| 2026-05-05 18:13 | 52.33569 | 5.11866 | 4407 ft | 265 kts | 237° |
| 2026-05-05 18:13 | 52.32550 | 5.09383 | 4407 ft | 266 kts | 237° |
| 2026-05-05 18:13 | 52.31525 | 5.06890 | 4404 ft | 266 kts | 237° |
| 2026-05-05 18:14 | 52.30487 | 5.04372 | 4404 ft | 266 kts | 237° |
| 2026-05-05 18:14 | 52.29450 | 5.01855 | 4407 ft | 266 kts | 237° |
| 2026-05-05 18:14 | 52.28419 | 4.99355 | 4404 ft | 266 kts | 237° |
| 2026-05-05 18:14 | 52.27383 | 4.96842 | 4408 ft | 266 kts | 237° |
| 2026-05-05 18:15 | 52.26340 | 4.94319 | 4410 ft | 266 kts | 237° |
| 2026-05-05 18:15 | 52.25311 | 4.91839 | 4424 ft | 267 kts | 237° |
| 2026-05-05 18:15 | 52.24264 | 4.89316 | 4418 ft | 268 kts | 237° |
| 2026-05-05 18:15 | 52.23224 | 4.86815 | 4404 ft | 268 kts | 237° |
| 2026-05-05 18:16 | 52.22175 | 4.84292 | 4414 ft | 268 kts | 237° |
| 2026-05-05 18:16 | 52.21131 | 4.81781 | 4343 ft | 264 kts | 237° |
| 2026-05-05 18:16 | 52.20105 | 4.79313 | 4002 ft | 265 kts | 237° |
| 2026-05-05 18:16 | 52.19067 | 4.76802 | 3642 ft | 266 kts | 237° |
| 2026-05-05 18:17 | 52.18032 | 4.74280 | 3311 ft | 267 kts | 237° |
| 2026-05-05 18:17 | 52.17014 | 4.71780 | 3021 ft | 266 kts | 237° |
| 2026-05-05 18:17 | 52.15992 | 4.69264 | 2733 ft | 264 kts | 237° |
| 2026-05-05 18:17 | 52.15017 | 4.66760 | 2429 ft | 263 kts | 247° |
| 2026-05-05 18:18 | 52.14778 | 4.63919 | 2249 ft | 245 kts | 287° |
| 2026-05-05 18:18 | 52.15556 | 4.61679 | 2146 ft | 222 kts | 325° |
| 2026-05-05 18:18 | 52.16815 | 4.60282 | 2065 ft | 219 kts | 332° |
| 2026-05-05 18:18 | 52.18102 | 4.58950 | 2005 ft | 217 kts | 332° |
| 2026-05-05 18:19 | 52.19366 | 4.57648 | 1983 ft | 214 kts | 333° |
| 2026-05-05 18:19 | 52.20689 | 4.56649 | 1969 ft | 207 kts | 358° |
| 2026-05-05 18:19 | 52.22030 | 4.57196 | 1997 ft | 202 kts | 37° |
| 2026-05-05 18:19 | 52.23012 | 4.58846 | 2003 ft | 207 kts | 50° |
| 2026-05-05 18:20 | 52.23889 | 4.60690 | 1892 ft | 206 kts | 52° |
| 2026-05-05 18:20 | 52.24677 | 4.62626 | 1630 ft | 198 kts | 56° |
| 2026-05-05 18:20 | 52.25373 | 4.64461 | 1382 ft | 186 kts | 56° |
| 2026-05-05 18:20 | 52.26033 | 4.66199 | 1124 ft | 173 kts | 55° |
| 2026-05-05 18:21 | 52.26648 | 4.67807 | 861 ft | 160 kts | 54° |
| 2026-05-05 18:21 | 52.27217 | 4.69294 | 673 ft | 147 kts | 55° |
| 2026-05-05 18:21 | 52.27607 | 4.70315 | 526 ft | 133 kts | 55° |
| 2026-05-05 18:21 | 52.28088 | 4.71575 | 360 ft | 130 kts | 52° |
| 2026-05-05 18:22 | 52.28575 | 4.72843 | 167 ft | 131 kts | 53° |
| 2026-05-05 18:22 | 52.29049 | 4.74092 | 3 ft | 124 kts | 53° |
| 2026-05-05 18:22 | 52.29455 | 4.75140 | -4 ft | 98 kts | 57° |
| 2026-05-05 18:22 | 52.29754 | 4.75920 | -3 ft | 62 kts | 58° |
| 2026-05-05 18:23 | 52.29929 | 4.76375 | -5 ft | 35 kts | 57° |
| 2026-05-05 18:23 | 52.30095 | 4.76598 | -2 ft | 29 kts | 27° |
| 2026-05-05 18:23 | 52.30176 | 4.76666 | -2 ft | 0 kts | 29° |
| 2026-05-05 18:24 | 52.30178 | 4.76668 | -2 ft | 2 kts | 29° |
| 2026-05-05 18:24 | 52.30195 | 4.76683 | -2 ft | 4 kts | 29° |
| 2026-05-05 18:25 | 52.30224 | 4.76710 | -2 ft | 5 kts | 28° |
| 2026-05-05 18:25 | 52.30245 | 4.76728 | -2 ft | 5 kts | 27° |
| 2026-05-05 18:25 | 52.30297 | 4.76746 | -2 ft | 6 kts | 355° |
| 2026-05-05 18:25 | 52.30339 | 4.76724 | -2 ft | 7 kts | 347° |
| 2026-05-05 18:26 | 52.30385 | 4.76747 | -2 ft | 7 kts | 30° |
| 2026-05-05 18:26 | 52.30428 | 4.76737 | -2 ft | 6 kts | 338° |
| 2026-05-05 18:26 | 52.30444 | 4.76725 | -2 ft | 1 kts | 335° |
| 2026-05-05 18:26 | 52.30451 | 4.76720 | -2 ft | 2 kts | 335° |
| 2026-05-05 18:27 | 52.30457 | 4.76715 | -2 ft | 0 kts | 334° |
| 2026-05-05 18:27 | 52.30458 | 4.76715 | -2 ft | 0 kts | 334° |